sensor_id;sensor_type;location;lat;lon;timestamp;temperature;humidity
16666;DHT22;8446;50.998;6.250;2023-08-07T00:00:43;12.70;99.90
16666;DHT22;8446;50.998;6.250;2023-08-07T00:03:10;12.70;99.90
16666;DHT22;8446;50.998;6.250;2023-08-07T00:05:44;12.80;99.90
16666;DHT22;8446;50.998;6.250;2023-08-07T00:08:13;12.80;99.90
16666;DHT22;8446;50.998;6.250;2023-08-07T00:10:40;12.70;99.90
16666;DHT22;8446;50.998;6.250;2023-08-07T00:13:06;12.70;99.90
16666;DHT22;8446;50.998;6.250;2023-08-07T00:15:36;12.70;99.90
16666;DHT22;8446;50.998;6.250;2023-08-07T00:18:03;12.70;99.90
16666;DHT22;8446;50.998;6.250;2023-08-07T00:20:30;12.60;99.90
16666;DHT22;8446;50.998;6.250;2023-08-07T00:22:57;12.60;99.90
16666;DHT22;8446;50.998;6.250;2023-08-07T00:25:25;12.60;99.90
16666;DHT22;8446;50.998;6.250;2023-08-07T00:27:52;12.60;99.90
16666;DHT22;8446;50.998;6.250;2023-08-07T00:30:19;12.60;99.90
16666;DHT22;8446;50.998;6.250;2023-08-07T00:32:46;12.60;99.90
16666;DHT22;8446;50.998;6.250;2023-08-07T00:35:13;12.70;99.90
16666;DHT22;8446;50.998;6.250;2023-08-07T00:37:39;12.70;99.90
16666;DHT22;8446;50.998;6.250;2023-08-07T00:40:07;12.70;99.90
16666;DHT22;8446;50.998;6.250;2023-08-07T00:42:36;12.70;99.90
16666;DHT22;8446;50.998;6.250;2023-08-07T00:45:03;12.70;99.90
16666;DHT22;8446;50.998;6.250;2023-08-07T00:47:30;12.70;99.90
16666;DHT22;8446;50.998;6.250;2023-08-07T00:49:57;12.70;99.90
16666;DHT22;8446;50.998;6.250;2023-08-07T00:52:25;12.70;99.90
16666;DHT22;8446;50.998;6.250;2023-08-07T00:54:52;12.60;99.90
16666;DHT22;8446;50.998;6.250;2023-08-07T00:57:19;12.60;99.90
16666;DHT22;8446;50.998;6.250;2023-08-07T00:59:49;12.60;99.90
16666;DHT22;8446;50.998;6.250;2023-08-07T01:02:16;12.60;99.90
16666;DHT22;8446;50.998;6.250;2023-08-07T01:04:43;12.70;99.90
16666;DHT22;8446;50.998;6.250;2023-08-07T01:07:10;12.70;99.90
16666;DHT22;8446;50.998;6.250;2023-08-07T01:09:37;12.70;99.90
16666;DHT22;8446;50.998;6.250;2023-08-07T01:12:11;12.60;99.90
16666;DHT22;8446;50.998;6.250;2023-08-07T01:14:46;12.70;99.90
16666;DHT22;8446;50.998;6.250;2023-08-07T01:17:16;12.70;99.90
16666;DHT22;8446;50.998;6.250;2023-08-07T01:19:44;12.70;99.90
16666;DHT22;8446;50.998;6.250;2023-08-07T01:22:14;12.70;99.90
16666;DHT22;8446;50.998;6.250;2023-08-07T01:24:41;12.70;99.90
16666;DHT22;8446;50.998;6.250;2023-08-07T01:27:15;12.70;99.90
16666;DHT22;8446;50.998;6.250;2023-08-07T01:29:49;12.80;99.90
16666;DHT22;8446;50.998;6.250;2023-08-07T01:32:21;12.80;99.90
16666;DHT22;8446;50.998;6.250;2023-08-07T01:34:48;12.80;99.90
16666;DHT22;8446;50.998;6.250;2023-08-07T01:37:18;12.80;99.90
16666;DHT22;8446;50.998;6.250;2023-08-07T01:39:46;12.80;99.90
16666;DHT22;8446;50.998;6.250;2023-08-07T01:42:14;12.80;99.90
16666;DHT22;8446;50.998;6.250;2023-08-07T01:44:41;12.80;99.90
16666;DHT22;8446;50.998;6.250;2023-08-07T01:47:08;12.80;99.90
16666;DHT22;8446;50.998;6.250;2023-08-07T01:49:35;12.80;99.90
16666;DHT22;8446;50.998;6.250;2023-08-07T01:52:04;12.80;99.90
16666;DHT22;8446;50.998;6.250;2023-08-07T01:54:33;12.90;99.90
16666;DHT22;8446;50.998;6.250;2023-08-07T01:57:00;12.80;99.90
16666;DHT22;8446;50.998;6.250;2023-08-07T01:59:26;12.80;99.90
16666;DHT22;8446;50.998;6.250;2023-08-07T02:01:53;12.80;99.90
16666;DHT22;8446;50.998;6.250;2023-08-07T02:04:20;12.80;99.90
16666;DHT22;8446;50.998;6.250;2023-08-07T02:06:47;12.80;99.90
16666;DHT22;8446;50.998;6.250;2023-08-07T02:09:14;12.80;99.90
16666;DHT22;8446;50.998;6.250;2023-08-07T02:11:42;12.80;99.90
16666;DHT22;8446;50.998;6.250;2023-08-07T02:14:09;12.80;99.90
16666;DHT22;8446;50.998;6.250;2023-08-07T02:16:36;12.70;99.90
16666;DHT22;8446;50.998;6.250;2023-08-07T02:19:03;12.80;99.90
16666;DHT22;8446;50.998;6.250;2023-08-07T02:21:31;12.80;99.90
16666;DHT22;8446;50.998;6.250;2023-08-07T02:23:58;12.80;99.90
16666;DHT22;8446;50.998;6.250;2023-08-07T02:26:25;12.80;99.90
16666;DHT22;8446;50.998;6.250;2023-08-07T02:28:53;12.80;99.90
16666;DHT22;8446;50.998;6.250;2023-08-07T02:31:20;12.80;99.90
16666;DHT22;8446;50.998;6.250;2023-08-07T02:33:46;12.70;99.90
16666;DHT22;8446;50.998;6.250;2023-08-07T02:36:13;12.80;99.90
16666;DHT22;8446;50.998;6.250;2023-08-07T02:38:40;12.80;99.90
16666;DHT22;8446;50.998;6.250;2023-08-07T02:41:07;12.90;99.90
16666;DHT22;8446;50.998;6.250;2023-08-07T02:43:34;12.80;99.90
16666;DHT22;8446;50.998;6.250;2023-08-07T02:46:02;12.80;99.90
16666;DHT22;8446;50.998;6.250;2023-08-07T02:48:28;12.80;99.90
16666;DHT22;8446;50.998;6.250;2023-08-07T02:50:55;12.80;99.90
16666;DHT22;8446;50.998;6.250;2023-08-07T02:53:22;12.80;99.90
16666;DHT22;8446;50.998;6.250;2023-08-07T02:55:49;12.80;99.90
16666;DHT22;8446;50.998;6.250;2023-08-07T02:58:15;12.80;99.90
16666;DHT22;8446;50.998;6.250;2023-08-07T03:00:42;12.70;99.90
16666;DHT22;8446;50.998;6.250;2023-08-07T03:03:11;12.80;99.90
16666;DHT22;8446;50.998;6.250;2023-08-07T03:05:37;12.80;99.90
16666;DHT22;8446;50.998;6.250;2023-08-07T03:08:04;12.80;99.90
16666;DHT22;8446;50.998;6.250;2023-08-07T03:10:31;12.80;99.90
16666;DHT22;8446;50.998;6.250;2023-08-07T03:12:58;12.70;99.90
16666;DHT22;8446;50.998;6.250;2023-08-07T03:15:24;12.80;99.90
16666;DHT22;8446;50.998;6.250;2023-08-07T03:17:51;12.80;99.90
16666;DHT22;8446;50.998;6.250;2023-08-07T03:20:19;12.70;99.90
16666;DHT22;8446;50.998;6.250;2023-08-07T03:22:46;12.70;99.90
16666;DHT22;8446;50.998;6.250;2023-08-07T03:25:13;12.60;99.90
16666;DHT22;8446;50.998;6.250;2023-08-07T03:27:39;12.60;99.90
16666;DHT22;8446;50.998;6.250;2023-08-07T03:30:07;12.60;99.90
16666;DHT22;8446;50.998;6.250;2023-08-07T03:32:34;12.50;99.90
16666;DHT22;8446;50.998;6.250;2023-08-07T03:35:01;12.40;99.90
16666;DHT22;8446;50.998;6.250;2023-08-07T03:37:29;12.40;99.90
16666;DHT22;8446;50.998;6.250;2023-08-07T03:39:55;12.30;99.90
16666;DHT22;8446;50.998;6.250;2023-08-07T03:42:22;12.40;99.90
16666;DHT22;8446;50.998;6.250;2023-08-07T03:44:49;12.40;99.90
16666;DHT22;8446;50.998;6.250;2023-08-07T03:47:16;12.40;99.90
16666;DHT22;8446;50.998;6.250;2023-08-07T03:49:42;12.50;99.90
16666;DHT22;8446;50.998;6.250;2023-08-07T03:52:09;12.40;99.90
16666;DHT22;8446;50.998;6.250;2023-08-07T03:54:37;12.50;99.90
16666;DHT22;8446;50.998;6.250;2023-08-07T03:57:04;12.50;99.90
16666;DHT22;8446;50.998;6.250;2023-08-07T03:59:31;12.50;99.90
16666;DHT22;8446;50.998;6.250;2023-08-07T04:01:58;12.50;99.90
16666;DHT22;8446;50.998;6.250;2023-08-07T04:04:25;12.50;99.90
16666;DHT22;8446;50.998;6.250;2023-08-07T04:06:51;12.40;99.90
16666;DHT22;8446;50.998;6.250;2023-08-07T04:09:18;12.50;99.90
16666;DHT22;8446;50.998;6.250;2023-08-07T04:11:46;12.40;99.90
16666;DHT22;8446;50.998;6.250;2023-08-07T04:14:13;12.40;99.90
16666;DHT22;8446;50.998;6.250;2023-08-07T04:16:40;12.50;99.90
16666;DHT22;8446;50.998;6.250;2023-08-07T04:19:07;12.40;99.90
16666;DHT22;8446;50.998;6.250;2023-08-07T04:21:34;12.40;99.90
16666;DHT22;8446;50.998;6.250;2023-08-07T04:24:00;12.40;99.90
16666;DHT22;8446;50.998;6.250;2023-08-07T04:26:33;12.40;99.90
16666;DHT22;8446;50.998;6.250;2023-08-07T04:29:02;12.40;99.90
16666;DHT22;8446;50.998;6.250;2023-08-07T04:31:29;12.40;99.90
16666;DHT22;8446;50.998;6.250;2023-08-07T04:33:56;12.40;99.90
16666;DHT22;8446;50.998;6.250;2023-08-07T04:36:23;12.40;99.90
16666;DHT22;8446;50.998;6.250;2023-08-07T04:38:50;12.40;99.90
16666;DHT22;8446;50.998;6.250;2023-08-07T04:41:17;12.40;99.90
16666;DHT22;8446;50.998;6.250;2023-08-07T04:43:44;12.40;99.90
16666;DHT22;8446;50.998;6.250;2023-08-07T04:46:14;12.50;99.90
16666;DHT22;8446;50.998;6.250;2023-08-07T04:48:41;12.50;99.90
16666;DHT22;8446;50.998;6.250;2023-08-07T04:51:08;12.50;99.90
16666;DHT22;8446;50.998;6.250;2023-08-07T04:53:35;12.50;99.90
16666;DHT22;8446;50.998;6.250;2023-08-07T04:56:02;12.40;99.90
16666;DHT22;8446;50.998;6.250;2023-08-07T04:58:29;12.50;99.90
16666;DHT22;8446;50.998;6.250;2023-08-07T05:00:56;12.40;99.90
16666;DHT22;8446;50.998;6.250;2023-08-07T05:03:24;12.50;99.90
16666;DHT22;8446;50.998;6.250;2023-08-07T05:05:58;12.50;99.90
16666;DHT22;8446;50.998;6.250;2023-08-07T05:08:25;12.50;99.90
16666;DHT22;8446;50.998;6.250;2023-08-07T05:10:51;12.50;99.90
16666;DHT22;8446;50.998;6.250;2023-08-07T05:13:18;12.50;99.90
16666;DHT22;8446;50.998;6.250;2023-08-07T05:15:47;12.50;99.90
16666;DHT22;8446;50.998;6.250;2023-08-07T05:18:14;12.50;99.90
16666;DHT22;8446;50.998;6.250;2023-08-07T05:20:42;12.50;99.90
16666;DHT22;8446;50.998;6.250;2023-08-07T05:23:09;12.50;99.90
16666;DHT22;8446;50.998;6.250;2023-08-07T05:25:36;12.60;99.90
16666;DHT22;8446;50.998;6.250;2023-08-07T05:28:03;12.50;99.90
16666;DHT22;8446;50.998;6.250;2023-08-07T05:30:30;12.60;99.90
16666;DHT22;8446;50.998;6.250;2023-08-07T05:32:58;12.50;99.90
16666;DHT22;8446;50.998;6.250;2023-08-07T05:35:24;12.60;99.90
16666;DHT22;8446;50.998;6.250;2023-08-07T05:37:53;12.60;99.90
16666;DHT22;8446;50.998;6.250;2023-08-07T05:40:19;12.50;99.90
16666;DHT22;8446;50.998;6.250;2023-08-07T05:42:46;12.50;99.90
16666;DHT22;8446;50.998;6.250;2023-08-07T05:45:13;12.50;99.90
16666;DHT22;8446;50.998;6.250;2023-08-07T05:47:40;12.50;99.90
16666;DHT22;8446;50.998;6.250;2023-08-07T05:50:07;12.50;99.90
16666;DHT22;8446;50.998;6.250;2023-08-07T05:52:34;12.50;99.90
16666;DHT22;8446;50.998;6.250;2023-08-07T05:55:03;12.50;99.90
16666;DHT22;8446;50.998;6.250;2023-08-07T05:57:30;12.50;99.90
16666;DHT22;8446;50.998;6.250;2023-08-07T05:59:57;12.50;99.90
16666;DHT22;8446;50.998;6.250;2023-08-07T06:02:24;12.60;99.90
16666;DHT22;8446;50.998;6.250;2023-08-07T06:04:52;12.60;99.90
16666;DHT22;8446;50.998;6.250;2023-08-07T06:07:19;12.60;99.90
16666;DHT22;8446;50.998;6.250;2023-08-07T06:09:46;12.60;99.90
16666;DHT22;8446;50.998;6.250;2023-08-07T06:12:14;12.60;99.90
16666;DHT22;8446;50.998;6.250;2023-08-07T06:14:41;12.60;99.90
16666;DHT22;8446;50.998;6.250;2023-08-07T06:17:08;12.60;99.90
16666;DHT22;8446;50.998;6.250;2023-08-07T06:19:35;12.60;99.90
16666;DHT22;8446;50.998;6.250;2023-08-07T06:22:02;12.60;99.90
16666;DHT22;8446;50.998;6.250;2023-08-07T06:24:29;12.60;99.90
16666;DHT22;8446;50.998;6.250;2023-08-07T06:26:56;12.50;99.90
16666;DHT22;8446;50.998;6.250;2023-08-07T06:29:24;12.50;99.90
16666;DHT22;8446;50.998;6.250;2023-08-07T06:31:50;12.50;99.90
16666;DHT22;8446;50.998;6.250;2023-08-07T06:34:17;12.50;99.90
16666;DHT22;8446;50.998;6.250;2023-08-07T06:36:44;12.50;99.90
16666;DHT22;8446;50.998;6.250;2023-08-07T06:39:11;12.50;99.90
16666;DHT22;8446;50.998;6.250;2023-08-07T06:41:38;12.50;99.90
16666;DHT22;8446;50.998;6.250;2023-08-07T06:44:05;12.50;99.90
16666;DHT22;8446;50.998;6.250;2023-08-07T06:46:33;12.60;99.90
16666;DHT22;8446;50.998;6.250;2023-08-07T06:48:59;12.60;99.90
16666;DHT22;8446;50.998;6.250;2023-08-07T06:51:26;12.60;99.90
16666;DHT22;8446;50.998;6.250;2023-08-07T06:53:53;12.60;99.90
16666;DHT22;8446;50.998;6.250;2023-08-07T06:56:20;12.70;99.90
16666;DHT22;8446;50.998;6.250;2023-08-07T06:58:46;12.70;99.90
16666;DHT22;8446;50.998;6.250;2023-08-07T07:01:13;12.70;99.90
16666;DHT22;8446;50.998;6.250;2023-08-07T07:03:41;12.80;99.90
16666;DHT22;8446;50.998;6.250;2023-08-07T07:06:11;12.80;99.90
16666;DHT22;8446;50.998;6.250;2023-08-07T07:08:37;12.90;99.90
16666;DHT22;8446;50.998;6.250;2023-08-07T07:11:04;12.90;99.90
16666;DHT22;8446;50.998;6.250;2023-08-07T07:13:31;13.00;99.90
16666;DHT22;8446;50.998;6.250;2023-08-07T07:15:58;13.10;99.90
16666;DHT22;8446;50.998;6.250;2023-08-07T07:18:25;13.10;99.90
16666;DHT22;8446;50.998;6.250;2023-08-07T07:20:58;13.20;99.90
16666;DHT22;8446;50.998;6.250;2023-08-07T07:23:26;13.30;99.90
16666;DHT22;8446;50.998;6.250;2023-08-07T07:25:53;13.30;99.90
16666;DHT22;8446;50.998;6.250;2023-08-07T07:28:20;13.30;99.90
16666;DHT22;8446;50.998;6.250;2023-08-07T07:30:47;13.40;99.90
16666;DHT22;8446;50.998;6.250;2023-08-07T07:33:14;13.50;99.90
16666;DHT22;8446;50.998;6.250;2023-08-07T07:35:41;13.50;99.90
16666;DHT22;8446;50.998;6.250;2023-08-07T07:38:09;13.60;99.90
16666;DHT22;8446;50.998;6.250;2023-08-07T07:40:38;13.60;99.90
16666;DHT22;8446;50.998;6.250;2023-08-07T07:43:04;13.60;99.90
16666;DHT22;8446;50.998;6.250;2023-08-07T07:45:31;13.70;99.90
16666;DHT22;8446;50.998;6.250;2023-08-07T07:48:02;13.80;99.90
16666;DHT22;8446;50.998;6.250;2023-08-07T07:50:29;13.80;99.90
16666;DHT22;8446;50.998;6.250;2023-08-07T07:52:55;13.90;99.90
16666;DHT22;8446;50.998;6.250;2023-08-07T07:55:24;13.90;99.90
16666;DHT22;8446;50.998;6.250;2023-08-07T07:57:51;13.90;99.90
16666;DHT22;8446;50.998;6.250;2023-08-07T08:00:18;13.90;99.90
16666;DHT22;8446;50.998;6.250;2023-08-07T08:02:45;14.00;99.90
16666;DHT22;8446;50.998;6.250;2023-08-07T08:05:12;14.00;99.90
16666;DHT22;8446;50.998;6.250;2023-08-07T08:07:42;14.10;99.90
16666;DHT22;8446;50.998;6.250;2023-08-07T08:10:09;14.10;99.90
16666;DHT22;8446;50.998;6.250;2023-08-07T08:12:37;14.20;99.90
16666;DHT22;8446;50.998;6.250;2023-08-07T08:15:05;14.20;99.90
16666;DHT22;8446;50.998;6.250;2023-08-07T08:17:32;14.30;99.90
16666;DHT22;8446;50.998;6.250;2023-08-07T08:19:59;14.20;99.90
16666;DHT22;8446;50.998;6.250;2023-08-07T08:22:25;14.30;99.90
16666;DHT22;8446;50.998;6.250;2023-08-07T08:24:52;14.40;99.90
16666;DHT22;8446;50.998;6.250;2023-08-07T08:27:19;14.50;99.90
16666;DHT22;8446;50.998;6.250;2023-08-07T08:29:48;14.60;99.90
16666;DHT22;8446;50.998;6.250;2023-08-07T08:32:15;14.70;99.90
16666;DHT22;8446;50.998;6.250;2023-08-07T08:34:42;14.70;99.90
16666;DHT22;8446;50.998;6.250;2023-08-07T08:37:08;14.80;99.90
16666;DHT22;8446;50.998;6.250;2023-08-07T08:39:36;14.90;99.90
16666;DHT22;8446;50.998;6.250;2023-08-07T08:42:04;15.00;99.90
16666;DHT22;8446;50.998;6.250;2023-08-07T08:44:31;15.00;99.90
16666;DHT22;8446;50.998;6.250;2023-08-07T08:47:04;14.90;99.90
16666;DHT22;8446;50.998;6.250;2023-08-07T08:49:36;14.90;99.90
16666;DHT22;8446;50.998;6.250;2023-08-07T08:52:04;14.80;99.90
16666;DHT22;8446;50.998;6.250;2023-08-07T08:54:32;14.80;99.90
16666;DHT22;8446;50.998;6.250;2023-08-07T08:56:59;14.90;99.90
16666;DHT22;8446;50.998;6.250;2023-08-07T08:59:26;15.10;99.90
16666;DHT22;8446;50.998;6.250;2023-08-07T09:01:54;15.20;99.90
16666;DHT22;8446;50.998;6.250;2023-08-07T09:04:22;15.40;99.90
16666;DHT22;8446;50.998;6.250;2023-08-07T09:06:49;15.40;99.90
16666;DHT22;8446;50.998;6.250;2023-08-07T09:09:20;15.40;99.90
16666;DHT22;8446;50.998;6.250;2023-08-07T09:11:47;15.40;99.90
16666;DHT22;8446;50.998;6.250;2023-08-07T09:14:16;15.20;99.90
16666;DHT22;8446;50.998;6.250;2023-08-07T09:16:44;15.40;99.90
16666;DHT22;8446;50.998;6.250;2023-08-07T09:19:13;15.50;99.90
16666;DHT22;8446;50.998;6.250;2023-08-07T09:21:41;15.60;99.90
16666;DHT22;8446;50.998;6.250;2023-08-07T09:24:08;15.70;99.90
16666;DHT22;8446;50.998;6.250;2023-08-07T09:26:35;15.80;99.90
16666;DHT22;8446;50.998;6.250;2023-08-07T09:29:02;16.00;99.90
16666;DHT22;8446;50.998;6.250;2023-08-07T09:31:29;16.10;99.90
16666;DHT22;8446;50.998;6.250;2023-08-07T09:34:01;16.40;99.90
16666;DHT22;8446;50.998;6.250;2023-08-07T09:36:30;16.40;99.90
16666;DHT22;8446;50.998;6.250;2023-08-07T09:39:02;16.80;99.90
16666;DHT22;8446;50.998;6.250;2023-08-07T09:41:29;16.80;99.90
16666;DHT22;8446;50.998;6.250;2023-08-07T09:43:56;17.10;99.90
16666;DHT22;8446;50.998;6.250;2023-08-07T09:46:25;17.10;99.90
16666;DHT22;8446;50.998;6.250;2023-08-07T09:48:52;16.90;99.90
16666;DHT22;8446;50.998;6.250;2023-08-07T09:51:23;16.90;99.90
16666;DHT22;8446;50.998;6.250;2023-08-07T09:53:50;17.30;99.90
16666;DHT22;8446;50.998;6.250;2023-08-07T09:56:18;17.00;99.90
16666;DHT22;8446;50.998;6.250;2023-08-07T09:58:48;17.20;99.90
16666;DHT22;8446;50.998;6.250;2023-08-07T10:01:16;17.50;99.90
16666;DHT22;8446;50.998;6.250;2023-08-07T10:03:43;17.10;99.90
16666;DHT22;8446;50.998;6.250;2023-08-07T10:06:12;17.10;99.90
16666;DHT22;8446;50.998;6.250;2023-08-07T10:08:39;16.80;99.90
16666;DHT22;8446;50.998;6.250;2023-08-07T10:11:08;16.60;99.90
16666;DHT22;8446;50.998;6.250;2023-08-07T10:13:37;16.30;99.90
16666;DHT22;8446;50.998;6.250;2023-08-07T10:16:04;16.80;99.90
16666;DHT22;8446;50.998;6.250;2023-08-07T10:18:31;16.90;99.90
16666;DHT22;8446;50.998;6.250;2023-08-07T10:20:57;17.40;99.90
16666;DHT22;8446;50.998;6.250;2023-08-07T10:23:25;16.90;99.90
16666;DHT22;8446;50.998;6.250;2023-08-07T10:25:53;16.70;99.90
16666;DHT22;8446;50.998;6.250;2023-08-07T10:28:22;16.40;99.90
16666;DHT22;8446;50.998;6.250;2023-08-07T10:30:52;16.40;99.90
16666;DHT22;8446;50.998;6.250;2023-08-07T10:33:19;17.30;99.90
16666;DHT22;8446;50.998;6.250;2023-08-07T10:35:47;17.50;99.90
16666;DHT22;8446;50.998;6.250;2023-08-07T10:38:15;17.80;99.90
16666;DHT22;8446;50.998;6.250;2023-08-07T10:41:01;17.80;99.90
16666;DHT22;8446;50.998;6.250;2023-08-07T10:43:28;18.10;99.90
16666;DHT22;8446;50.998;6.250;2023-08-07T10:46:02;18.30;99.90
16666;DHT22;8446;50.998;6.250;2023-08-07T10:48:30;18.30;99.90
16666;DHT22;8446;50.998;6.250;2023-08-07T10:51:04;18.40;99.90
16666;DHT22;8446;50.998;6.250;2023-08-07T10:53:32;17.50;99.90
16666;DHT22;8446;50.998;6.250;2023-08-07T10:56:01;17.40;99.90
16666;DHT22;8446;50.998;6.250;2023-08-07T10:58:30;17.80;99.90
16666;DHT22;8446;50.998;6.250;2023-08-07T11:01:17;18.10;99.90
16666;DHT22;8446;50.998;6.250;2023-08-07T11:03:45;18.50;99.90
16666;DHT22;8446;50.998;6.250;2023-08-07T11:06:12;18.30;99.90
16666;DHT22;8446;50.998;6.250;2023-08-07T11:08:40;18.10;99.90
16666;DHT22;8446;50.998;6.250;2023-08-07T11:11:07;17.80;99.90
16666;DHT22;8446;50.998;6.250;2023-08-07T11:13:34;17.60;99.90
16666;DHT22;8446;50.998;6.250;2023-08-07T11:16:02;18.00;99.90
16666;DHT22;8446;50.998;6.250;2023-08-07T11:18:30;18.20;99.90
16666;DHT22;8446;50.998;6.250;2023-08-07T11:20:57;18.30;99.90
16666;DHT22;8446;50.998;6.250;2023-08-07T11:23:26;17.90;99.90
16666;DHT22;8446;50.998;6.250;2023-08-07T11:25:54;18.30;99.90
16666;DHT22;8446;50.998;6.250;2023-08-07T11:28:21;18.30;99.90
16666;DHT22;8446;50.998;6.250;2023-08-07T11:30:49;18.10;99.90
16666;DHT22;8446;50.998;6.250;2023-08-07T11:33:17;18.70;99.90
16666;DHT22;8446;50.998;6.250;2023-08-07T11:35:46;18.40;99.90
16666;DHT22;8446;50.998;6.250;2023-08-07T11:38:13;18.10;99.90
16666;DHT22;8446;50.998;6.250;2023-08-07T11:40:39;17.90;99.90
16666;DHT22;8446;50.998;6.250;2023-08-07T11:43:06;17.50;99.90
16666;DHT22;8446;50.998;6.250;2023-08-07T11:45:33;17.70;99.90
16666;DHT22;8446;50.998;6.250;2023-08-07T11:48:00;18.50;99.90
16666;DHT22;8446;50.998;6.250;2023-08-07T11:50:28;18.40;99.90
16666;DHT22;8446;50.998;6.250;2023-08-07T11:52:56;18.90;99.90
16666;DHT22;8446;50.998;6.250;2023-08-07T11:55:28;19.30;99.90
16666;DHT22;8446;50.998;6.250;2023-08-07T11:57:55;19.40;99.90
16666;DHT22;8446;50.998;6.250;2023-08-07T12:00:25;18.80;99.90
16666;DHT22;8446;50.998;6.250;2023-08-07T12:02:53;18.40;99.90
16666;DHT22;8446;50.998;6.250;2023-08-07T12:05:20;18.30;99.90
16666;DHT22;8446;50.998;6.250;2023-08-07T12:07:47;18.50;99.90
16666;DHT22;8446;50.998;6.250;2023-08-07T12:10:15;18.50;99.90
16666;DHT22;8446;50.998;6.250;2023-08-07T12:12:43;18.40;99.90
16666;DHT22;8446;50.998;6.250;2023-08-07T12:15:10;18.70;99.90
16666;DHT22;8446;50.998;6.250;2023-08-07T12:17:37;19.20;99.90
16666;DHT22;8446;50.998;6.250;2023-08-07T12:20:05;19.20;99.90
16666;DHT22;8446;50.998;6.250;2023-08-07T12:22:35;18.90;99.90
16666;DHT22;8446;50.998;6.250;2023-08-07T12:25:03;19.20;99.90
16666;DHT22;8446;50.998;6.250;2023-08-07T12:27:31;19.00;99.90
16666;DHT22;8446;50.998;6.250;2023-08-07T12:29:58;18.40;99.90
16666;DHT22;8446;50.998;6.250;2023-08-07T12:32:25;18.80;99.90
16666;DHT22;8446;50.998;6.250;2023-08-07T12:34:52;18.60;99.90
16666;DHT22;8446;50.998;6.250;2023-08-07T12:37:19;19.40;99.90
16666;DHT22;8446;50.998;6.250;2023-08-07T12:39:46;19.30;99.90
16666;DHT22;8446;50.998;6.250;2023-08-07T12:42:12;19.50;99.90
16666;DHT22;8446;50.998;6.250;2023-08-07T12:44:40;19.50;99.90
16666;DHT22;8446;50.998;6.250;2023-08-07T12:47:08;19.60;99.90
16666;DHT22;8446;50.998;6.250;2023-08-07T12:49:35;19.50;99.90
16666;DHT22;8446;50.998;6.250;2023-08-07T12:52:02;19.60;99.90
16666;DHT22;8446;50.998;6.250;2023-08-07T12:54:29;19.80;99.90
16666;DHT22;8446;50.998;6.250;2023-08-07T12:56:57;19.90;99.90
16666;DHT22;8446;50.998;6.250;2023-08-07T12:59:24;19.30;99.90
16666;DHT22;8446;50.998;6.250;2023-08-07T13:01:52;18.70;99.90
16666;DHT22;8446;50.998;6.250;2023-08-07T13:04:19;18.50;99.90
16666;DHT22;8446;50.998;6.250;2023-08-07T13:06:46;18.10;99.90
16666;DHT22;8446;50.998;6.250;2023-08-07T13:09:14;18.20;99.90
16666;DHT22;8446;50.998;6.250;2023-08-07T13:11:41;19.20;99.90
16666;DHT22;8446;50.998;6.250;2023-08-07T13:14:08;19.60;99.90
16666;DHT22;8446;50.998;6.250;2023-08-07T13:16:35;19.40;99.90
16666;DHT22;8446;50.998;6.250;2023-08-07T13:19:03;19.50;99.90
16666;DHT22;8446;50.998;6.250;2023-08-07T13:21:29;19.50;99.90
16666;DHT22;8446;50.998;6.250;2023-08-07T13:23:56;19.10;99.90
16666;DHT22;8446;50.998;6.250;2023-08-07T13:26:23;19.50;99.90
16666;DHT22;8446;50.998;6.250;2023-08-07T13:28:50;20.30;99.00
16666;DHT22;8446;50.998;6.250;2023-08-07T13:31:17;20.20;97.50
16666;DHT22;8446;50.998;6.250;2023-08-07T13:33:43;19.10;99.90
16666;DHT22;8446;50.998;6.250;2023-08-07T13:36:11;19.40;99.90
16666;DHT22;8446;50.998;6.250;2023-08-07T13:38:38;20.00;99.90
16666;DHT22;8446;50.998;6.250;2023-08-07T13:41:05;19.90;99.80
16666;DHT22;8446;50.998;6.250;2023-08-07T13:43:32;19.10;99.90
16666;DHT22;8446;50.998;6.250;2023-08-07T13:45:59;18.80;99.90
16666;DHT22;8446;50.998;6.250;2023-08-07T13:48:25;18.40;99.90
16666;DHT22;8446;50.998;6.250;2023-08-07T13:50:53;18.30;99.90
16666;DHT22;8446;50.998;6.250;2023-08-07T13:53:22;17.90;99.90
16666;DHT22;8446;50.998;6.250;2023-08-07T13:55:54;17.80;99.90
16666;DHT22;8446;50.998;6.250;2023-08-07T13:58:21;17.80;99.90
16666;DHT22;8446;50.998;6.250;2023-08-07T14:00:48;18.30;99.90
16666;DHT22;8446;50.998;6.250;2023-08-07T14:03:14;19.70;99.90
16666;DHT22;8446;50.998;6.250;2023-08-07T14:05:41;19.50;99.90
16666;DHT22;8446;50.998;6.250;2023-08-07T14:08:08;18.80;99.90
16666;DHT22;8446;50.998;6.250;2023-08-07T14:10:37;18.20;99.90
16666;DHT22;8446;50.998;6.250;2023-08-07T14:13:06;18.20;99.90
16666;DHT22;8446;50.998;6.250;2023-08-07T14:15:33;18.20;99.90
16666;DHT22;8446;50.998;6.250;2023-08-07T14:18:00;18.30;99.90
16666;DHT22;8446;50.998;6.250;2023-08-07T14:20:27;19.20;99.90
16666;DHT22;8446;50.998;6.250;2023-08-07T14:22:54;19.60;99.90
16666;DHT22;8446;50.998;6.250;2023-08-07T14:25:20;19.90;99.90
16666;DHT22;8446;50.998;6.250;2023-08-07T14:27:49;20.40;99.30
16666;DHT22;8446;50.998;6.250;2023-08-07T14:30:16;20.10;99.90
16666;DHT22;8446;50.998;6.250;2023-08-07T14:32:43;19.60;99.90
16666;DHT22;8446;50.998;6.250;2023-08-07T14:35:09;20.80;99.90
16666;DHT22;8446;50.998;6.250;2023-08-07T14:37:36;20.70;97.70
16666;DHT22;8446;50.998;6.250;2023-08-07T14:40:03;20.60;98.40
16666;DHT22;8446;50.998;6.250;2023-08-07T14:42:30;20.40;95.70
16666;DHT22;8446;50.998;6.250;2023-08-07T14:44:58;19.60;97.80
16666;DHT22;8446;50.998;6.250;2023-08-07T14:47:25;19.70;98.30
16666;DHT22;8446;50.998;6.250;2023-08-07T14:49:52;19.60;98.20
16666;DHT22;8446;50.998;6.250;2023-08-07T14:52:19;19.20;97.90
16666;DHT22;8446;50.998;6.250;2023-08-07T14:54:46;19.10;98.30
16666;DHT22;8446;50.998;6.250;2023-08-07T14:57:13;19.50;97.30
16666;DHT22;8446;50.998;6.250;2023-08-07T14:59:40;19.50;95.80
16666;DHT22;8446;50.998;6.250;2023-08-07T15:02:08;19.30;95.90
16666;DHT22;8446;50.998;6.250;2023-08-07T15:04:35;19.10;97.00
16666;DHT22;8446;50.998;6.250;2023-08-07T15:07:02;19.10;97.70
16666;DHT22;8446;50.998;6.250;2023-08-07T15:09:29;19.20;98.40
16666;DHT22;8446;50.998;6.250;2023-08-07T15:11:55;19.20;97.60
16666;DHT22;8446;50.998;6.250;2023-08-07T15:14:22;19.10;97.00
16666;DHT22;8446;50.998;6.250;2023-08-07T15:16:49;19.20;96.80
16666;DHT22;8446;50.998;6.250;2023-08-07T15:19:17;19.30;96.70
16666;DHT22;8446;50.998;6.250;2023-08-07T15:21:44;19.50;97.30
16666;DHT22;8446;50.998;6.250;2023-08-07T15:24:11;19.90;95.20
16666;DHT22;8446;50.998;6.250;2023-08-07T15:26:37;20.20;95.60
16666;DHT22;8446;50.998;6.250;2023-08-07T15:29:04;20.20;94.60
16666;DHT22;8446;50.998;6.250;2023-08-07T15:31:32;20.30;94.10
16666;DHT22;8446;50.998;6.250;2023-08-07T15:33:59;20.10;94.90
16666;DHT22;8446;50.998;6.250;2023-08-07T15:36:27;20.20;94.40
16666;DHT22;8446;50.998;6.250;2023-08-07T15:38:54;20.00;95.80
16666;DHT22;8446;50.998;6.250;2023-08-07T15:41:21;20.10;95.80
16666;DHT22;8446;50.998;6.250;2023-08-07T15:43:48;19.60;95.70
16666;DHT22;8446;50.998;6.250;2023-08-07T15:46:15;19.30;96.60